createdAt,value
2023-02-03T00:01:47.339Z,25.37
2023-02-03T00:04:13.908Z,26.37
2023-02-03T00:06:40.685Z,26.80
2023-02-03T00:09:07.323Z,25.07
2023-02-03T00:11:33.763Z,26.40
2023-02-03T00:14:00.323Z,26.43
2023-02-03T00:16:26.833Z,26.67
2023-02-03T00:18:53.334Z,27.00
2023-02-03T00:21:20.222Z,27.30
2023-02-03T00:23:46.664Z,26.73
2023-02-03T00:26:15.838Z,27.03
2023-02-03T00:28:44.041Z,26.40
2023-02-03T00:31:21.143Z,25.90
2023-02-03T00:33:48.395Z,26.73
2023-02-03T00:36:17.194Z,26.23
2023-02-03T00:38:43.593Z,25.57
2023-02-03T00:41:10.117Z,25.50
2023-02-03T00:43:36.671Z,25.20
2023-02-03T00:46:03.123Z,24.17
2023-02-03T00:48:29.696Z,24.13
2023-02-03T00:50:56.247Z,23.47
2023-02-03T00:53:25.119Z,22.37
2023-02-03T00:55:52.059Z,23.50
2023-02-03T00:58:18.597Z,21.97
2023-02-03T01:00:45.110Z,23.10
2023-02-03T01:03:11.609Z,22.10
2023-02-03T01:05:38.034Z,19.83
2023-02-03T01:08:04.923Z,20.40
2023-02-03T01:10:31.776Z,20.17
2023-02-03T01:12:58.378Z,19.40
2023-02-03T01:15:27.687Z,19.27
2023-02-03T01:17:54.092Z,18.57
2023-02-03T01:20:21.580Z,19.00
2023-02-03T01:22:48.546Z,18.83
2023-02-03T01:25:15.110Z,19.10
2023-02-03T01:27:41.550Z,18.53
2023-02-03T01:30:08.571Z,17.93
2023-02-03T01:32:35.070Z,17.63
2023-02-03T01:35:04.223Z,18.60
2023-02-03T01:37:30.625Z,17.03
2023-02-03T01:39:57.755Z,17.27
2023-02-03T01:42:24.195Z,16.53
2023-02-03T01:44:52.194Z,16.83
2023-02-03T01:47:27.760Z,16.67
2023-02-03T01:50:05.692Z,15.80
2023-02-03T01:52:32.962Z,16.13
2023-02-03T01:55:03.327Z,16.13
2023-02-03T01:57:36.766Z,16.17
2023-02-03T02:00:06.898Z,15.50
2023-02-03T02:02:40.862Z,16.20
2023-02-03T02:05:14.959Z,15.87
2023-02-03T02:07:43.403Z,15.57
2023-02-03T02:10:10.795Z,16.43
2023-02-03T02:12:37.623Z,15.67
2023-02-03T02:15:04.618Z,15.30
2023-02-03T02:18:07.596Z,14.83
2023-02-03T02:20:50.545Z,15.27
2023-02-03T02:23:35.873Z,15.00
2023-02-03T02:26:31.127Z,14.63
2023-02-03T02:29:28.363Z,14.40
2023-02-03T02:32:20.984Z,14.03
2023-02-03T02:35:04.143Z,13.80
2023-02-03T02:37:59.155Z,13.63
2023-02-03T02:40:33.160Z,13.47
2023-02-03T02:43:21.788Z,13.43
2023-02-03T02:45:50.622Z,12.93
2023-02-03T02:48:26.862Z,13.17
2023-02-03T02:50:57.907Z,12.13
2023-02-03T02:53:29.163Z,12.60
2023-02-03T02:55:58.686Z,12.40
2023-02-03T02:58:27.553Z,11.77
2023-02-03T03:00:54.890Z,11.67
2023-02-03T03:03:23.940Z,11.93
2023-02-03T03:06:00.203Z,12.27
2023-02-03T03:08:51.762Z,12.00
2023-02-03T03:11:18.634Z,10.80
2023-02-03T03:13:49.756Z,11.53
2023-02-03T03:16:20.807Z,11.87
2023-02-03T03:18:51.384Z,11.03
2023-02-03T03:21:24.463Z,11.20
2023-02-03T03:23:54.564Z,10.23
2023-02-03T03:26:39.997Z,10.60
2023-02-03T03:29:13.340Z,10.83
2023-02-03T03:31:41.086Z,10.20
2023-02-03T03:34:12.211Z,9.77
2023-02-03T03:36:56.469Z,9.47
2023-02-03T03:39:31.582Z,9.20
2023-02-03T03:42:06.664Z,9.63
2023-02-03T03:44:39.870Z,10.03
2023-02-03T03:47:14.947Z,10.27
2023-02-03T03:49:45.078Z,9.67
2023-02-03T03:52:16.631Z,9.60
2023-02-03T03:54:44.638Z,9.70
2023-02-03T03:57:17.671Z,9.93
2023-02-03T03:59:48.620Z,9.63
2023-02-03T04:02:17.376Z,9.70
2023-02-03T04:04:45.180Z,9.70
2023-02-03T04:07:15.367Z,9.90
2023-02-03T04:09:42.903Z,9.17
2023-02-03T04:12:18.948Z,8.80
2023-02-03T04:14:45.363Z,9.60
2023-02-03T04:17:11.777Z,9.93
2023-02-03T04:19:38.224Z,9.40
2023-02-03T04:22:05.459Z,9.00
2023-02-03T04:24:31.892Z,9.10
2023-02-03T04:26:58.482Z,8.97
2023-02-03T04:29:24.926Z,9.90
2023-02-03T04:31:51.550Z,9.00
2023-02-03T04:34:18.012Z,9.30
2023-02-03T04:36:44.410Z,9.10
2023-02-03T04:39:10.862Z,9.20
2023-02-03T04:41:37.617Z,8.67
2023-02-03T04:44:04.181Z,8.93
2023-02-03T04:46:30.669Z,9.37
2023-02-03T04:48:57.723Z,9.23
2023-02-03T04:51:24.259Z,8.90
2023-02-03T04:53:50.682Z,8.80
2023-02-03T04:56:17.092Z,9.10
2023-02-03T04:58:43.521Z,9.80
2023-02-03T05:01:10.151Z,8.17
2023-02-03T05:03:37.019Z,8.50
2023-02-03T05:06:05.410Z,8.13
2023-02-03T05:08:31.987Z,8.40
2023-02-03T05:11:01.802Z,9.30
2023-02-03T05:13:28.834Z,7.73
2023-02-03T05:15:55.356Z,7.77
2023-02-03T05:18:21.802Z,8.20
2023-02-03T05:20:48.225Z,7.80
2023-02-03T05:23:14.682Z,8.43
2023-02-03T05:25:43.660Z,7.63
2023-02-03T05:28:10.122Z,7.80
2023-02-03T05:30:36.850Z,7.60
2023-02-03T05:33:03.443Z,7.70
2023-02-03T05:35:29.886Z,7.70
2023-02-03T05:37:56.699Z,7.30
2023-02-03T05:40:41.909Z,8.17
2023-02-03T05:43:08.399Z,7.60
2023-02-03T05:45:35.225Z,7.00
2023-02-03T05:48:02.627Z,7.87
2023-02-03T05:50:33.250Z,7.60
2023-02-03T05:53:07.699Z,7.60
2023-02-03T05:55:35.622Z,7.90
2023-02-03T05:58:02.126Z,7.80
2023-02-03T06:00:29.862Z,6.93
2023-02-03T06:03:02.341Z,6.63
2023-02-03T06:05:30.395Z,7.73
2023-02-03T06:07:57.084Z,7.20
2023-02-03T06:10:23.529Z,7.87
2023-02-03T06:12:50.646Z,7.80
2023-02-03T06:15:17.638Z,8.63
2023-02-03T06:17:46.086Z,7.93
2023-02-03T06:20:13.979Z,8.07
2023-02-03T06:22:40.457Z,7.93
2023-02-03T06:25:07.398Z,8.20
2023-02-03T06:27:34.028Z,7.63
2023-02-03T06:30:00.766Z,8.50
2023-02-03T06:32:28.987Z,7.93
2023-02-03T06:34:55.455Z,8.00
2023-02-03T06:37:23.841Z,7.80
2023-02-03T06:39:51.020Z,8.37
2023-02-03T06:42:18.601Z,7.83
2023-02-03T06:44:45.055Z,9.13
2023-02-03T06:47:11.500Z,8.40
2023-02-03T06:49:39.009Z,8.53
2023-02-03T06:52:05.426Z,8.60
2023-02-03T06:54:31.886Z,9.17
2023-02-03T06:56:58.438Z,8.37
2023-02-03T06:59:25.002Z,8.30
2023-02-03T07:01:51.573Z,8.47
2023-02-03T07:04:18.095Z,8.33
2023-02-03T07:06:44.556Z,8.03
2023-02-03T07:09:11.000Z,8.77
2023-02-03T07:11:37.423Z,8.13
2023-02-03T07:14:04.029Z,8.70
2023-02-03T07:16:31.306Z,8.50
2023-02-03T07:18:58.160Z,9.00
2023-02-03T07:21:24.581Z,7.93
2023-02-03T07:23:51.035Z,8.77
2023-02-03T07:26:18.763Z,8.00
2023-02-03T07:28:45.554Z,8.03
2023-02-03T07:31:12.102Z,8.90
2023-02-03T07:33:39.234Z,7.97
2023-02-03T07:36:06.933Z,8.93
2023-02-03T07:38:33.536Z,9.17
2023-02-03T07:40:59.954Z,8.97
2023-02-03T07:43:26.981Z,9.00
2023-02-03T07:45:53.441Z,9.67
2023-02-03T07:48:19.933Z,8.57
2023-02-03T07:50:48.255Z,8.60
2023-02-03T07:53:15.616Z,8.87
2023-02-03T07:55:42.034Z,9.60
2023-02-03T07:58:08.502Z,9.67
2023-02-03T08:00:35.489Z,9.20
2023-02-03T08:03:02.573Z,9.50
2023-02-03T08:05:30.495Z,9.43
2023-02-03T08:07:59.438Z,10.07
2023-02-03T08:10:26.454Z,9.33
2023-02-03T08:12:54.684Z,9.70
2023-02-03T08:15:21.470Z,9.67
2023-02-03T08:17:50.873Z,8.33
2023-02-03T08:20:18.047Z,8.50
2023-02-03T08:22:44.936Z,8.10
2023-02-03T08:25:12.087Z,7.97
2023-02-03T08:27:40.012Z,8.40
2023-02-03T08:30:08.607Z,9.10
2023-02-03T08:32:35.054Z,8.23
2023-02-03T08:35:01.808Z,7.93
2023-02-03T08:37:30.152Z,8.03
2023-02-03T08:39:57.160Z,7.57
2023-02-03T08:42:23.755Z,7.17
2023-02-03T08:44:50.286Z,7.03
2023-02-03T08:47:16.909Z,7.33
2023-02-03T08:49:43.407Z,7.60
2023-02-03T08:52:12.355Z,7.63
2023-02-03T08:54:39.902Z,7.73
2023-02-03T08:57:07.902Z,7.07
2023-02-03T08:59:37.770Z,7.00
2023-02-03T09:02:05.891Z,6.30
2023-02-03T09:04:33.432Z,6.00
2023-02-03T09:07:00.895Z,6.73
2023-02-03T09:09:28.997Z,6.17
2023-02-03T09:12:02.680Z,5.80
2023-02-03T09:14:29.940Z,5.47
2023-02-03T09:16:56.751Z,5.53
2023-02-03T09:19:24.055Z,5.77
2023-02-03T09:21:50.802Z,5.70
2023-02-03T09:24:18.559Z,5.10
2023-02-03T09:26:45.501Z,5.33
2023-02-03T09:29:12.246Z,5.10
2023-02-03T09:31:39.251Z,7.33
2023-02-03T09:34:05.757Z,5.60
2023-02-03T09:36:32.169Z,5.63
2023-02-03T09:38:58.812Z,5.20
2023-02-03T09:41:48.527Z,5.30
2023-02-03T09:44:26.818Z,5.30
2023-02-03T09:47:04.827Z,5.00
2023-02-03T09:49:47.206Z,5.67
2023-02-03T09:52:22.703Z,6.20
2023-02-03T09:55:03.376Z,5.53
2023-02-03T09:57:32.421Z,5.20
2023-02-03T10:00:02.548Z,4.33
2023-02-03T10:02:50.452Z,4.60
2023-02-03T10:05:29.802Z,4.73
2023-02-03T10:08:16.018Z,4.27
2023-02-03T10:11:09.394Z,5.17
2023-02-03T10:13:47.037Z,5.03
2023-02-03T10:16:21.977Z,5.93
2023-02-03T10:18:55.125Z,4.33
2023-02-03T10:21:40.095Z,3.87
2023-02-03T10:24:14.204Z,3.90
2023-02-03T10:26:41.804Z,3.73
2023-02-03T10:29:18.321Z,3.50
2023-02-03T10:31:46.659Z,3.63
2023-02-03T10:34:15.547Z,3.10
2023-02-03T10:36:52.906Z,2.97
2023-02-03T10:39:29.396Z,3.10
2023-02-03T10:41:56.120Z,3.40
2023-02-03T10:44:36.455Z,2.57
2023-02-03T10:47:28.670Z,3.00
2023-02-03T10:49:57.560Z,3.40
2023-02-03T10:52:33.967Z,3.33
2023-02-03T10:55:30.038Z,3.03
2023-02-03T10:57:57.979Z,2.47
2023-02-03T11:00:34.319Z,3.57
2023-02-03T11:03:05.476Z,3.27
2023-02-03T11:05:32.356Z,3.90
2023-02-03T11:07:58.858Z,3.90
2023-02-03T11:10:37.904Z,3.20
2023-02-03T11:13:19.680Z,4.30
2023-02-03T11:15:57.214Z,3.83
2023-02-03T11:18:37.483Z,3.87
2023-02-03T11:21:18.044Z,3.73
2023-02-03T11:23:49.034Z,4.23
2023-02-03T11:26:19.900Z,4.03
2023-02-03T11:28:48.975Z,4.47
2023-02-03T11:31:18.810Z,4.43
2023-02-03T11:33:52.691Z,4.17
2023-02-03T11:36:20.012Z,4.03
2023-02-03T11:38:46.531Z,5.13
2023-02-03T11:41:18.590Z,4.03
2023-02-03T11:43:45.731Z,4.00
2023-02-03T11:46:13.631Z,4.70
2023-02-03T11:48:57.072Z,4.50
2023-02-03T11:51:51.753Z,4.57
2023-02-03T11:54:44.976Z,4.50
2023-02-03T11:57:39.433Z,4.27
2023-02-03T12:00:10.687Z,4.23
2023-02-03T12:02:50.552Z,4.50
2023-02-03T12:05:32.296Z,3.50
2023-02-03T12:08:18.036Z,4.03
2023-02-03T12:11:00.830Z,4.13
2023-02-03T12:13:36.949Z,4.40
2023-02-03T12:16:15.482Z,4.03
2023-02-03T12:18:57.047Z,5.10
2023-02-03T12:21:57.064Z,4.47
2023-02-03T12:24:55.074Z,4.87
2023-02-03T12:27:50.224Z,4.23
2023-02-03T12:30:24.904Z,3.97
2023-02-03T12:33:11.723Z,3.90
2023-02-03T12:35:54.824Z,4.33
2023-02-03T12:38:30.176Z,4.13
2023-02-03T12:41:01.236Z,4.83
2023-02-03T12:43:37.658Z,4.33
2023-02-03T12:46:12.941Z,4.07
2023-02-03T12:48:54.924Z,3.40
2023-02-03T12:51:33.530Z,4.33
2023-02-03T12:54:09.812Z,4.20
2023-02-03T12:56:41.991Z,4.03
2023-02-03T12:59:18.308Z,3.67
2023-02-03T13:01:53.731Z,3.60
2023-02-03T13:04:43.895Z,4.00
2023-02-03T13:07:30.107Z,4.17
2023-02-03T13:10:03.641Z,4.33
2023-02-03T13:12:35.980Z,3.93
2023-02-03T13:15:29.428Z,4.33
2023-02-03T13:18:21.491Z,4.47
2023-02-03T13:20:47.931Z,4.23
2023-02-03T13:23:15.872Z,3.73
2023-02-03T13:25:54.715Z,4.07
2023-02-03T13:28:42.903Z,4.40
2023-02-03T13:31:21.727Z,4.23
2023-02-03T13:34:19.134Z,4.03
2023-02-03T13:37:16.927Z,3.47
2023-02-03T13:39:58.538Z,4.20
2023-02-03T13:42:28.399Z,3.40
2023-02-03T13:45:22.191Z,3.90
2023-02-03T13:47:52.698Z,4.27
2023-02-03T13:50:31.492Z,3.80
2023-02-03T13:53:02.915Z,4.17
2023-02-03T13:55:38.930Z,4.27
2023-02-03T13:58:18.213Z,3.60
2023-02-03T14:00:45.553Z,3.90
2023-02-03T14:03:19.399Z,4.37
2023-02-03T14:05:52.011Z,3.77
2023-02-03T14:08:30.360Z,3.63
2023-02-03T14:11:34.268Z,4.37
2023-02-03T14:14:12.593Z,4.77
2023-02-03T14:16:44.105Z,3.20
2023-02-03T14:19:12.222Z,4.03
2023-02-03T14:21:42.596Z,3.20
2023-02-03T14:24:12.614Z,3.67
2023-02-03T14:26:43.032Z,4.40
2023-02-03T14:29:23.315Z,3.93
2023-02-03T14:32:00.273Z,3.80
2023-02-03T14:34:38.248Z,3.83
2023-02-03T14:37:26.255Z,4.17
2023-02-03T14:40:30.273Z,4.17
2023-02-03T14:43:34.754Z,3.93
2023-02-03T14:46:32.084Z,3.30
2023-02-03T14:49:21.145Z,4.47
2023-02-03T14:52:22.302Z,3.97
2023-02-03T14:55:03.773Z,3.80
2023-02-03T14:57:49.967Z,3.47
2023-02-03T15:00:19.116Z,3.50
2023-02-03T15:03:11.885Z,4.00
2023-02-03T15:05:41.038Z,3.30
2023-02-03T15:08:30.674Z,3.57
2023-02-03T15:10:57.509Z,4.10
2023-02-03T15:13:31.461Z,3.63
2023-02-03T15:16:01.678Z,3.43
2023-02-03T15:18:31.613Z,3.80
2023-02-03T15:20:58.914Z,3.53
2023-02-03T15:23:29.187Z,4.73
2023-02-03T15:25:56.651Z,4.03
2023-02-03T15:28:25.078Z,3.70
2023-02-03T15:31:18.954Z,3.53
2023-02-03T15:33:47.817Z,4.17
2023-02-03T15:36:21.516Z,4.67
2023-02-03T15:39:15.675Z,3.93
2023-02-03T15:41:42.826Z,3.77
2023-02-03T15:44:22.155Z,5.00
2023-02-03T15:46:52.411Z,5.20
2023-02-03T15:49:33.971Z,4.87
2023-02-03T15:52:07.178Z,4.50
2023-02-03T15:54:45.890Z,4.60
2023-02-03T15:57:21.578Z,4.30
2023-02-03T15:59:56.503Z,4.63
2023-02-03T16:02:30.522Z,4.13
2023-02-03T16:04:58.146Z,4.50
2023-02-03T16:07:27.483Z,4.27
2023-02-03T16:09:56.652Z,3.93
2023-02-03T16:12:31.445Z,4.90
2023-02-03T16:14:59.566Z,4.43
2023-02-03T16:17:34.881Z,4.60
2023-02-03T16:20:32.319Z,4.97
2023-02-03T16:23:03.741Z,4.50
2023-02-03T16:25:32.991Z,4.57
2023-02-03T16:28:22.908Z,4.60
2023-02-03T16:31:33.457Z,3.53
2023-02-03T16:34:20.915Z,4.33
2023-02-03T16:37:06.080Z,4.07
2023-02-03T16:39:51.288Z,5.33
2023-02-03T16:42:39.048Z,4.27
2023-02-03T16:45:37.043Z,5.63
2023-02-03T16:48:22.680Z,4.60
2023-02-03T16:50:58.127Z,5.27
2023-02-03T16:53:28.244Z,5.33
2023-02-03T16:55:57.451Z,5.40
2023-02-03T16:58:24.596Z,5.13
2023-02-03T17:00:53.011Z,4.63
2023-02-03T17:03:24.411Z,4.90
2023-02-03T17:05:51.842Z,4.80
2023-02-03T17:08:20.786Z,4.73
2023-02-03T17:10:50.715Z,3.80
2023-02-03T17:13:20.929Z,3.87
2023-02-03T17:15:50.547Z,4.07
2023-02-03T17:18:17.061Z,4.40
2023-02-03T17:20:44.560Z,4.13
2023-02-03T17:23:11.805Z,4.10
2023-02-03T17:25:39.521Z,4.50
2023-02-03T17:28:08.265Z,5.00
2023-02-03T17:30:35.489Z,4.87
2023-02-03T17:33:13.270Z,5.70
2023-02-03T17:35:41.923Z,4.87
2023-02-03T17:38:09.396Z,10.50
2023-02-03T17:54:21.361Z,4.83
2023-02-03T17:56:49.234Z,3.97
2023-02-03T17:59:16.212Z,4.77
2023-02-03T18:01:42.877Z,4.57
2023-02-03T18:04:09.352Z,5.10
2023-02-03T18:06:35.991Z,4.93
2023-02-03T18:09:05.371Z,6.07
2023-02-03T18:11:33.895Z,4.73
2023-02-03T18:14:00.853Z,5.00
2023-02-03T18:16:32.419Z,4.87
2023-02-03T18:19:01.047Z,4.87
2023-02-03T18:21:27.671Z,4.17
2023-02-03T18:23:58.580Z,4.73
2023-02-03T18:26:26.250Z,5.23
2023-02-03T18:28:53.705Z,5.13
2023-02-03T18:31:20.715Z,4.80
2023-02-03T18:33:48.090Z,5.50
2023-02-03T18:36:16.479Z,6.40
2023-02-03T18:38:45.069Z,4.80
2023-02-03T18:41:21.345Z,5.33
2023-02-03T18:43:49.161Z,5.23
2023-02-03T18:46:27.900Z,5.53
2023-02-03T18:48:56.198Z,4.60
2023-02-03T18:51:24.181Z,5.10
2023-02-03T18:53:50.680Z,5.37
2023-02-03T18:56:22.885Z,5.40
2023-02-03T18:58:49.486Z,4.87
2023-02-03T19:01:25.092Z,4.63
2023-02-03T19:03:51.991Z,5.00
2023-02-03T19:06:18.858Z,5.20
2023-02-03T19:08:45.794Z,5.23
2023-02-03T19:11:13.546Z,4.87
2023-02-03T19:13:40.800Z,5.23
2023-02-03T19:16:08.298Z,5.03
2023-02-03T19:18:36.215Z,5.23
2023-02-03T19:21:03.032Z,5.10
2023-02-03T19:23:29.818Z,5.80
2023-02-03T19:25:56.420Z,5.07
2023-02-03T19:28:30.432Z,6.67
2023-02-03T19:31:12.793Z,4.70
2023-02-03T19:33:39.488Z,6.20
2023-02-03T19:36:08.244Z,5.87
2023-02-03T19:38:35.159Z,6.60
2023-02-03T19:41:02.409Z,6.00
2023-02-03T19:43:31.993Z,7.50
2023-02-03T19:45:58.869Z,8.83
2023-02-03T19:48:25.362Z,7.10
2023-02-03T19:50:51.894Z,4.57
2023-02-03T19:53:18.720Z,4.73
2023-02-03T19:55:46.359Z,5.17
2023-02-03T19:58:14.055Z,5.30
2023-02-03T20:00:41.530Z,6.40
2023-02-03T20:03:08.367Z,5.70
2023-02-03T20:05:36.115Z,5.00
2023-02-03T20:08:03.459Z,6.17
2023-02-03T20:10:30.453Z,4.60
2023-02-03T20:12:57.428Z,5.10
2023-02-03T20:15:23.987Z,5.83
2023-02-03T20:17:50.366Z,5.50
2023-02-03T20:20:20.307Z,4.83
2023-02-03T20:22:47.290Z,5.20
2023-02-03T20:25:13.806Z,6.30
2023-02-03T20:27:40.343Z,5.37
2023-02-03T20:30:07.279Z,5.43
2023-02-03T20:32:33.888Z,4.70
2023-02-03T20:35:01.097Z,4.87
2023-02-03T20:37:28.998Z,5.07
2023-02-03T20:39:55.375Z,4.63
2023-02-03T20:42:21.788Z,6.43
2023-02-03T20:44:48.211Z,5.10
2023-02-03T20:47:22.068Z,6.33
2023-02-03T20:49:49.459Z,4.73
2023-02-03T20:52:20.844Z,5.90
2023-02-03T20:54:47.948Z,5.47
2023-02-03T20:57:19.134Z,5.77
2023-02-03T20:59:46.327Z,5.90
2023-02-03T21:02:30.660Z,5.47
2023-02-03T21:04:57.689Z,5.40
2023-02-03T21:07:27.526Z,5.40
2023-02-03T21:09:54.653Z,5.43
2023-02-03T21:12:21.114Z,5.60
2023-02-03T21:14:53.091Z,5.67
2023-02-03T21:17:22.769Z,5.20
2023-02-03T21:19:50.631Z,4.77
2023-02-03T21:22:30.096Z,5.83
2023-02-03T21:25:01.980Z,6.33
2023-02-03T21:27:29.877Z,5.43
2023-02-03T21:29:58.234Z,4.53
2023-02-03T21:32:30.846Z,5.33
2023-02-03T21:34:57.439Z,4.47
2023-02-03T21:37:23.869Z,5.13
2023-02-03T21:39:50.496Z,4.80
2023-02-03T21:42:40.940Z,5.63
2023-02-03T21:45:16.955Z,5.23
2023-02-03T21:47:44.732Z,4.53
2023-02-03T21:50:26.440Z,5.23
2023-02-03T21:52:52.896Z,5.63
2023-02-03T21:55:19.508Z,4.67
2023-02-03T21:57:48.019Z,5.37
2023-02-03T22:00:39.665Z,4.67
2023-02-03T22:03:08.325Z,5.90
2023-02-03T22:05:37.739Z,5.93
2023-02-03T22:08:21.579Z,5.10
2023-02-03T22:10:48.422Z,5.40
2023-02-03T22:13:15.650Z,5.10
2023-02-03T22:15:42.567Z,5.57
2023-02-03T22:18:09.139Z,5.37
2023-02-03T22:20:35.688Z,5.17
2023-02-03T22:23:02.316Z,5.47
2023-02-03T22:25:29.193Z,5.20
2023-02-03T22:27:55.669Z,4.67
2023-02-03T22:30:22.147Z,4.63
2023-02-03T22:32:48.552Z,4.30
2023-02-03T22:35:15.054Z,5.17
2023-02-03T22:37:41.546Z,5.17
2023-02-03T22:40:09.729Z,5.10
2023-02-03T22:42:36.279Z,5.30
2023-02-03T22:45:02.752Z,5.43
2023-02-03T22:47:29.304Z,5.17
2023-02-03T22:49:55.684Z,5.17
2023-02-03T22:52:22.113Z,5.03
2023-02-03T22:54:48.510Z,4.87
2023-02-03T22:57:14.940Z,5.27
2023-02-03T22:59:41.331Z,5.90
2023-02-03T23:02:07.852Z,4.67
2023-02-03T23:04:34.451Z,6.10
2023-02-03T23:07:26.591Z,6.17
2023-02-03T23:09:53.488Z,5.33
2023-02-03T23:12:19.902Z,6.37
2023-02-03T23:14:46.580Z,5.97
2023-02-03T23:17:13.072Z,5.20
2023-02-03T23:19:39.541Z,5.90
2023-02-03T23:22:05.919Z,5.67
2023-02-03T23:24:32.325Z,5.90
2023-02-03T23:26:59.074Z,5.43
2023-02-03T23:29:25.521Z,6.67
2023-02-03T23:31:51.996Z,6.10
2023-02-03T23:34:37.216Z,5.60
2023-02-03T23:37:03.776Z,5.17
2023-02-03T23:39:30.885Z,5.70
2023-02-03T23:41:58.090Z,5.40
2023-02-03T23:44:24.589Z,5.40
2023-02-03T23:46:51.051Z,4.80
2023-02-03T23:49:17.435Z,5.00
2023-02-03T23:51:43.841Z,4.87
2023-02-03T23:54:10.292Z,4.70
2023-02-03T23:56:36.703Z,4.93
2023-02-03T23:59:03.157Z,4.87
